Time;durP1;ratioP1;P1;durP2;ratioP2;P2;SDS_P1;SDS_P2;PMS_P1;PMS_P2;Temp;Humidity;BMP_temperature;BMP_pressure;BME280_temperature;BME280_humidity;BME280_pressure;Samples;Min_cycle;Max_cycle;Signal;HPM_P1;HPM_P2
2023/06/24 00:03:08;;;;;;;6.63;3.97;;;;;;;17.72;83.91;100511.59;10475037;28;20041;-86
2023/06/24 00:08:10;;;;;;;6.50;4.25;;;;;;;17.63;84.15;100514.34;10508691;28;20056;-87
2023/06/24 00:13:14;;;;;;;7.78;4.43;;;;;;;17.63;84.15;100524.63;10510456;28;20044;-87
2023/06/24 00:18:16;;;;;;;5.03;3.58;;;;;;;17.64;83.83;100526.25;10499326;28;20625;-86
2023/06/24 00:23:25;;;;;;;6.43;3.58;;;;;;;17.57;83.67;100529.56;10491250;28;20048;-86
2023/06/24 00:28:27;;;;;;;6.25;3.65;;;;;;;17.52;83.75;100518.59;10490856;28;20044;-86
2023/06/24 00:33:35;;;;;;;5.30;3.15;;;;;;;17.47;84.22;100527.94;10470155;28;20041;-87
2023/06/24 00:38:38;;;;;;;;;;;;;;;17.45;83.93;100535.78;10474019;28;20032;-87
2023/06/24 00:43:40;;;;;;;5.75;3.38;;;;;;;17.45;84.34;100535.78;10481109;28;20391;-87
2023/06/24 00:48:47;;;;;;;6.80;4.50;;;;;;;17.42;85.09;100541.97;10508605;28;20028;-86
2023/06/24 00:53:49;;;;;;;7.88;4.00;;;;;;;17.45;85.84;100546.06;10484282;28;20036;-86
2023/06/24 00:58:52;;;;;;;8.77;4.65;;;;;;;17.35;86.29;100540.84;10508481;28;20503;-87
2023/06/24 01:03:56;;;;;;;6.85;4.47;;;;;;;17.29;86.95;100542.97;10474998;28;20040;-86
2023/06/24 01:09:00;;;;;;;7.00;5.28;;;;;;;17.29;87.65;100556.03;10472588;28;20403;-86
2023/06/24 01:14:04;;;;;;;7.00;4.95;;;;;;;17.29;87.96;100550.47;10477188;28;20048;-86
2023/06/24 01:19:33;;;;;;;7.43;4.85;;;;;;;17.35;88.54;100563.84;10504920;28;20042;-87
2023/06/24 01:24:55;;;;;;;7.20;4.93;;;;;;;17.43;87.91;100559.44;10490677;28;20029;-87
2023/06/24 01:30:16;;;;;;;6.28;4.45;;;;;;;17.55;88.15;100567.91;10508385;28;20491;-87
2023/06/24 01:35:23;;;;;;;5.68;3.95;;;;;;;17.60;87.92;100564.97;10490162;28;20036;-87
2023/06/24 01:40:40;;;;;;;8.23;5.00;;;;;;;17.65;88.00;100562.00;10509395;28;20056;-87
2023/06/24 01:45:45;;;;;;;6.00;4.15;;;;;;;17.72;87.83;100567.91;10475716;28;20396;-87
2023/06/24 01:51:15;;;;;;;6.78;3.83;;;;;;;17.77;88.44;100564.94;10488368;28;20036;-87
2023/06/24 01:56:19;;;;;;;5.35;3.00;;;;;;;17.97;88.72;100557.03;10461934;28;20045;-87
2023/06/24 02:01:22;;;;;;;5.32;3.50;;;;;;;18.32;87.36;100563.25;10492499;28;20399;-87
2023/06/24 02:06:25;;;;;;;4.10;3.55;;;;;;;18.58;86.82;100554.75;10493629;28;20306;-86
2023/06/24 02:11:28;;;;;;;4.55;3.22;;;;;;;18.90;85.71;100551.25;10472143;28;20047;-87
2023/06/24 02:16:32;;;;;;;5.07;3.20;;;;;;;19.34;83.47;100556.47;10486906;28;20047;-87
2023/06/24 02:21:35;;;;;;;6.28;3.30;;;;;;;19.69;82.41;100548.59;10482764;28;20610;-87
2023/06/24 02:26:40;;;;;;;4.68;3.40;;;;;;;20.06;80.53;100543.88;10513377;28;20075;-87
2023/06/24 02:31:42;;;;;;;6.70;3.65;;;;;;;20.30;79.13;100552.25;10474162;28;20033;-86
2023/06/24 02:37:05;;;;;;;5.78;3.30;;;;;;;20.35;79.07;100542.84;10445366;28;20119;-87
2023/06/24 02:42:08;;;;;;;4.60;3.25;;;;;;;20.40;78.62;100545.41;10468023;28;20407;-87
2023/06/24 02:47:12;;;;;;;4.72;3.75;;;;;;;20.15;79.28;100534.28;10474867;28;20028;-87
2023/06/24 02:52:15;;;;;;;4.47;3.40;;;;;;;20.13;79.06;100531.03;10484625;28;20071;-87
2023/06/24 02:57:20;;;;;;;4.85;3.10;;;;;;;19.80;79.31;100528.31;10497422;28;20510;-86
2023/06/24 03:02:51;;;;;;;4.60;3.70;;;;;;;19.43;79.08;100538.50;10484751;28;20060;-87
2023/06/24 03:07:53;;;;;;;5.22;3.63;;;;;;;19.33;79.64;100532.56;10510883;28;20047;-87
2023/06/24 03:12:58;;;;;;;6.20;3.47;;;;;;;19.22;79.27;100540.53;10482469;28;20056;-86
2023/06/24 03:18:11;;;;;;;4.47;3.65;;;;;;;19.30;79.82;100531.28;10482978;28;20044;-87
2023/06/24 03:23:14;;;;;;;4.55;3.22;;;;;;;19.16;79.66;100536.34;10496694;28;20040;-88
2023/06/24 03:28:22;;;;;;;5.75;3.15;;;;;;;19.21;78.88;100534.16;10480639;28;20040;-86
2023/06/24 03:33:32;;;;;;;5.40;3.75;;;;;;;19.37;79.18;100547.41;10492535;28;20036;-87
2023/06/24 03:38:35;;;;;;;6.28;3.67;;;;;;;19.22;80.54;100548.88;10480166;28;20048;-87
2023/06/24 03:43:38;;;;;;;5.55;3.55;;;;;;;19.14;80.28;100547.00;10512491;28;20534;-87
2023/06/24 03:48:40;;;;;;;4.97;3.63;;;;;;;19.25;80.36;100554.56;10486815;28;20037;-87
2023/06/24 03:53:43;;;;;;;5.78;3.53;;;;;;;19.40;80.40;100549.50;10490110;28;20059;-87
2023/06/24 03:58:45;;;;;;;5.32;3.90;;;;;;;19.59;80.68;100555.41;10477360;28;20044;-87
2023/06/24 04:03:47;;;;;;;4.93;3.85;;;;;;;19.50;80.27;100561.03;10509863;28;20086;-87
2023/06/24 04:08:51;;;;;;;6.88;3.63;;;;;;;19.51;80.46;100570.19;10456943;28;20059;-87
2023/06/24 04:13:54;;;;;;;7.30;4.13;;;;;;;19.47;80.39;100575.66;10493135;28;20040;-87
2023/06/24 04:18:56;;;;;;;4.40;3.67;;;;;;;19.49;80.69;100567.78;10465980;28;20530;-87
2023/06/24 04:23:58;;;;;;;5.22;3.60;;;;;;;19.69;80.06;100579.22;10504327;28;20672;-87
2023/06/24 04:29:01;;;;;;;5.63;3.70;;;;;;;19.82;80.29;100592.03;10459543;28;20032;-87
2023/06/24 04:34:05;;;;;;;6.03;3.72;;;;;;;20.11;79.92;100594.59;10492790;28;20037;-89
2023/06/24 04:39:08;;;;;;;5.18;3.88;;;;;;;20.99;76.65;100590.28;10469219;28;20128;-87
2023/06/24 04:44:11;;;;;;;5.72;3.72;;;;;;;21.78;72.12;100598.97;10492130;28;20060;-87
2023/06/24 04:49:13;;;;;;;5.10;4.30;;;;;;;22.70;68.21;100594.91;10492604;28;20453;-87
2023/06/24 04:54:18;;;;;;;5.80;3.95;;;;;;;23.46;64.71;100593.41;10470746;28;20049;-87
2023/06/24 04:59:21;;;;;;;4.47;3.45;;;;;;;23.92;62.41;100598.28;10492585;28;20041;-84
2023/06/24 05:04:23;;;;;;;5.03;3.70;;;;;;;24.37;59.84;100596.72;10452395;28;20037;-84
2023/06/24 05:09:25;;;;;;;4.70;3.63;;;;;;;24.68;58.15;100607.63;10472627;28;20051;-85
2023/06/24 05:14:28;;;;;;;5.25;3.83;;;;;;;25.34;56.21;100602.53;10492961;28;20037;-85
2023/06/24 05:19:30;;;;;;;6.40;3.20;;;;;;;25.69;53.87;100600.22;10476457;28;20041;-85
2023/06/24 05:24:32;;;;;;;4.32;3.30;;;;;;;25.87;54.08;100597.59;10508685;28;20518;-85
2023/06/24 05:29:35;;;;;;;3.92;3.50;;;;;;;25.93;52.96;100598.03;10490942;28;20043;-85
2023/06/24 05:34:37;;;;;;;6.75;3.80;;;;;;;25.75;51.74;100609.09;10484949;28;20507;-84
2023/06/24 05:39:39;;;;;;;7.03;3.90;;;;;;;25.78;52.78;100609.13;10472385;28;20052;-84
2023/06/24 05:44:41;;;;;;;3.95;3.55;;;;;;;24.90;53.80;100603.13;10446749;28;20053;-84
2023/06/24 05:49:43;;;;;;;4.90;4.13;;;;;;;24.14;56.99;100611.53;10464595;28;20033;-85
2023/06/24 05:54:48;;;;;;;4.25;3.80;;;;;;;24.79;55.76;100619.81;10504791;28;20047;-84
2023/06/24 05:59:50;;;;;;;5.45;4.63;;;;;;;26.09;53.86;100621.91;10466087;28;20041;-84
2023/06/24 06:04:53;;;;;;;5.30;4.30;;;;;;;26.94;51.70;100612.53;10494963;28;20505;-85
2023/06/24 06:09:55;;;;;;;5.32;4.50;;;;;;;27.06;52.13;100614.22;10454488;28;20037;-85
2023/06/24 06:14:57;;;;;;;7.35;5.03;;;;;;;27.51;49.25;100618.47;10479738;28;20067;-85
2023/06/24 06:19:59;;;;;;;5.00;4.50;;;;;;;27.65;49.30;100612.94;10484140;28;20036;-85
2023/06/24 06:25:04;;;;;;;5.38;3.80;;;;;;;27.90;46.33;100625.06;10477406;28;20045;-85
2023/06/24 06:30:07;;;;;;;5.03;3.72;;;;;;;27.58;46.40;100621.31;10485368;28;20045;-85
2023/06/24 06:35:09;;;;;;;4.15;3.40;;;;;;;27.09;47.89;100619.91;10509954;28;20403;-85
2023/06/24 06:40:11;;;;;;;4.35;3.95;;;;;;;26.82;48.67;100626.94;10488661;28;20045;-85
2023/06/24 06:45:14;;;;;;;5.03;4.53;;;;;;;26.76;48.70;100622.88;10519047;28;20049;-86
2023/06/24 06:50:16;;;;;;;4.15;3.75;;;;;;;26.21;48.92;100629.25;10456943;28;20041;-85
2023/06/24 06:55:18;;;;;;;4.75;3.67;;;;;;;26.87;46.51;100635.00;10465304;28;20411;-85
2023/06/24 07:00:20;;;;;;;4.63;3.42;;;;;;;25.88;46.83;100634.94;10476976;28;20048;-86
2023/06/24 07:05:23;;;;;;;5.63;3.30;;;;;;;26.34;46.65;100621.31;10480837;28;20048;-85
2023/06/24 07:10:25;;;;;;;7.20;4.18;;;;;;;27.06;46.60;100625.50;10491493;28;20602;-86
2023/06/24 07:15:27;;;;;;;5.13;4.13;;;;;;;27.39;46.41;100616.81;10523778;28;20488;-87
2023/06/24 07:20:30;;;;;;;6.32;4.28;;;;;;;26.67;47.39;100624.03;10507272;28;20492;-86
2023/06/24 07:25:32;;;;;;;5.47;4.40;;;;;;;26.16;49.72;100621.16;10507085;28;20047;-86
2023/06/24 07:30:34;;;;;;;7.95;4.97;;;;;;;25.52;52.73;100624.06;10489471;28;20048;-86
2023/06/24 07:35:36;;;;;;;5.78;4.60;;;;;;;24.72;53.82;100621.72;10482906;28;20037;-85
2023/06/24 07:40:39;;;;;;;5.95;4.55;;;;;;;24.85;54.01;100631.53;10516411;28;20455;-85
2023/06/24 07:45:42;;;;;;;9.70;5.78;;;;;;;25.27;53.68;100636.16;10482219;28;20055;-85
2023/06/24 07:50:45;;;;;;;6.72;4.97;;;;;;;26.19;51.11;100639.25;10462420;28;20036;-86
2023/06/24 07:55:47;;;;;;;5.18;4.68;;;;;;;27.45;47.18;100634.16;10479856;28;20059;-86
2023/06/24 08:00:49;;;;;;;4.75;4.28;;;;;;;27.99;46.62;100623.88;10459097;28;20036;-86
2023/06/24 08:05:51;;;;;;;5.47;3.72;;;;;;;28.62;43.53;100648.53;10445942;28;20052;-85
2023/06/24 08:10:54;;;;;;;4.55;4.07;;;;;;;28.75;43.05;100637.66;10481825;28;20028;-86
2023/06/24 08:15:56;;;;;;;4.30;3.63;;;;;;;27.23;44.43;100631.22;10467014;28;20045;-85
2023/06/24 08:20:58;;;;;;;5.97;3.28;;;;;;;27.36;44.09;100628.88;10467448;28;20048;-86
2023/06/24 08:26:00;;;;;;;4.40;3.08;;;;;;;27.26;44.87;100630.47;10443528;28;20045;-86
2023/06/24 08:31:03;;;;;;;3.78;2.90;;;;;;;27.93;41.76;100621.44;10476980;28;20045;-86
2023/06/24 08:36:06;;;;;;;2.78;2.38;;;;;;;28.82;39.41;100615.88;10482732;28;20045;-86
2023/06/24 08:41:08;;;;;;;2.17;1.92;;;;;;;28.86;37.15;100615.88;10470566;28;20055;-86
2023/06/24 08:46:12;;;;;;;4.15;2.25;;;;;;;29.28;35.77;100617.75;10510730;28;20055;-85
2023/06/24 08:51:18;;;;;;;2.28;1.80;;;;;;;29.57;35.03;100614.84;10474523;28;20032;-87
2023/06/24 08:56:20;;;;;;;2.20;1.77;;;;;;;29.76;34.87;100624.84;10471025;28;20049;-87
2023/06/24 09:01:22;;;;;;;3.42;1.88;;;;;;;30.08;35.17;100617.00;10510779;28;20040;-87
2023/06/24 09:06:34;;;;;;;3.85;2.00;;;;;;;30.38;34.74;100618.41;10448256;28;20055;-84
2023/06/24 09:11:36;;;;;;;2.33;1.80;;;;;;;30.26;34.72;100620.50;10488390;28;20044;-85
2023/06/24 09:16:38;;;;;;;2.10;1.90;;;;;;;29.28;35.29;100631.09;10508814;28;20408;-86
2023/06/24 09:21:46;;;;;;;1.85;1.50;;;;;;;28.98;36.37;100632.38;10448205;28;20047;-89
2023/06/24 09:26:48;;;;;;;1.88;1.70;;;;;;;28.46;37.90;100646.16;10461145;28;20055;-85
2023/06/24 09:31:58;;;;;;;1.70;1.60;;;;;;;27.34;40.59;100649.00;10484965;28;20048;-90
2023/06/24 09:37:06;;;;;;;2.40;2.00;;;;;;;26.59;42.83;100655.34;10487056;28;20403;-89
2023/06/24 09:42:12;;;;;;;4.38;2.33;;;;;;;25.99;45.64;100664.78;10500298;28;20492;-89
2023/06/24 09:47:14;;;;;;;;;;;;;;;25.33;46.50;100662.72;10467342;28;20040;-88
2023/06/24 09:52:27;;;;;;;7.30;3.28;;;;;;;24.85;49.42;100668.84;10500999;28;20405;-85
2023/06/24 09:57:31;;;;;;;3.30;3.00;;;;;;;24.76;50.29;100671.09;10493447;28;20043;-86
2023/06/24 10:02:34;;;;;;;3.53;3.20;;;;;;;24.93;49.91;100662.13;10486469;28;20404;-84
2023/06/24 10:07:41;;;;;;;5.55;3.20;;;;;;;24.89;50.75;100672.50;10523430;28;20042;-87
2023/06/24 10:12:47;;;;;;;5.10;2.90;;;;;;;24.81;50.38;100675.56;10478635;28;20032;-85
2023/06/24 10:17:50;;;;;;;3.95;2.40;;;;;;;24.60;50.27;100667.63;10497056;28;20032;-87
2023/06/24 10:22:53;;;;;;;3.65;2.60;;;;;;;24.50;48.91;100674.69;10503584;28;20041;-85
2023/06/24 10:27:55;;;;;;;4.88;2.58;;;;;;;24.26;49.55;100684.22;10460269;28;20036;-84
2023/06/24 10:33:00;;;;;;;4.38;3.10;;;;;;;24.06;51.21;100679.84;10490588;28;20048;-84
2023/06/24 10:38:02;;;;;;;3.80;2.60;;;;;;;24.04;51.95;100685.03;10458185;28;20041;-84
2023/06/24 10:43:26;;;;;;;3.80;2.75;;;;;;;24.33;50.22;100698.44;10508438;28;20044;-85
2023/06/24 10:48:29;;;;;;;5.35;2.90;;;;;;;24.29;50.56;100708.75;10473513;28;20036;-84
2023/06/24 10:53:31;;;;;;;2.90;2.45;;;;;;;24.24;50.43;100720.25;10446972;28;20441;-84
2023/06/24 10:58:33;;;;;;;2.55;2.28;;;;;;;24.29;51.73;100714.34;10478290;28;20037;-84
2023/06/24 11:03:39;;;;;;;3.78;2.40;;;;;;;24.15;51.22;100716.09;10489263;28;20036;-83
2023/06/24 11:08:45;;;;;;;6.00;2.80;;;;;;;23.97;51.90;100707.31;10504845;28;20052;-84
2023/06/24 11:13:48;;;;;;;3.50;2.95;;;;;;;24.01;52.80;100703.41;10506783;28;20531;-84
2023/06/24 11:18:50;;;;;;;2.72;2.17;;;;;;;24.02;52.33;100707.00;10477283;28;20037;-86
2023/06/24 11:23:52;;;;;;;3.40;2.72;;;;;;;24.05;52.83;100698.66;10474764;28;20047;-88
2023/06/24 11:28:54;;;;;;;3.50;2.42;;;;;;;24.06;52.92;100699.47;10451344;28;20033;-86
2023/06/24 11:34:01;;;;;;;5.05;2.60;;;;;;;24.08;52.99;100699.91;10480231;28;20040;-86
2023/06/24 11:39:04;;;;;;;4.15;2.28;;;;;;;23.91;54.60;100698.38;10478073;28;20048;-87
2023/06/24 11:44:06;;;;;;;3.53;2.42;;;;;;;23.92;53.62;100716.81;10501077;28;20530;-85
2023/06/24 11:49:09;;;;;;;2.97;2.22;;;;;;;23.84;53.44;100708.66;10516035;28;20049;-85
2023/06/24 11:54:11;;;;;;;2.78;2.15;;;;;;;23.73;53.25;100717.63;10485173;28;20439;-87
2023/06/24 11:59:25;;;;;;;3.20;2.38;;;;;;;23.73;53.20;100709.22;10479841;28;20040;-87
2023/06/24 12:04:28;;;;;;;3.22;2.20;;;;;;;23.66;52.12;100720.31;10493228;28;20045;-87
2023/06/24 12:09:30;;;;;;;5.65;1.98;;;;;;;23.42;52.31;100712.94;10469106;28;20044;-90
2023/06/24 12:14:33;;;;;;;2.80;2.00;;;;;;;23.29;52.28;100717.06;10506365;28;20036;-89
2023/06/24 12:19:42;;;;;;;3.08;2.25;;;;;;;23.08;51.87;100708.97;10486033;28;20388;-90
2023/06/24 12:24:47;;;;;;;2.83;2.20;;;;;;;22.91;53.20;100711.31;10489671;28;20036;-89
2023/06/24 12:29:49;;;;;;;2.85;1.92;;;;;;;22.86;52.52;100710.44;10464009;28;20051;-88
2023/06/24 12:34:51;;;;;;;4.32;2.38;;;;;;;22.84;52.50;100706.38;10483485;28;20047;-90
2023/06/24 12:39:56;;;;;;;2.05;1.50;;;;;;;22.69;51.27;100719.16;10456532;28;20045;-90
2023/06/24 12:45:14;;;;;;;;;;;;;;;;;;;;;
2023/06/24 12:50:17;;;;;;;2.92;1.73;;;;;;;22.68;50.74;100716.72;10463993;28;20924;-87
2023/06/24 12:55:38;;;;;;;2.33;2.00;;;;;;;22.67;49.63;100715.13;10463481;28;20039;-90
2023/06/24 13:00:40;;;;;;;3.08;1.50;;;;;;;22.66;48.49;100730.28;10481049;28;20037;-88
2023/06/24 13:05:42;;;;;;;3.65;1.58;;;;;;;22.49;48.42;100739.81;10439355;28;20040;-87
2023/06/24 13:10:44;;;;;;;2.20;1.60;;;;;;;22.37;48.44;100737.91;10500445;28;20052;-88
2023/06/24 13:15:46;;;;;;;1.50;1.40;;;;;;;22.36;48.01;100741.06;10461275;28;20487;-88
2023/06/24 13:20:52;;;;;;;6.07;1.30;;;;;;;22.38;48.25;100738.72;10472151;28;20029;-85
2023/06/24 13:26:03;;;;;;;1.35;1.25;;;;;;;22.34;49.28;100732.22;10497352;28;20067;-86
2023/06/24 13:38:30;;;;;;;2.25;1.30;;;;;;;22.14;49.51;100756.44;10492129;28;20511;-85
2023/06/24 13:43:32;;;;;;;1.30;1.20;;;;;;;22.00;51.18;100754.03;10486809;28;20057;-87
2023/06/24 13:48:35;;;;;;;3.75;1.55;;;;;;;21.68;50.35;100779.03;10449065;28;20041;-85
2023/06/24 13:53:37;;;;;;;1.67;1.17;;;;;;;21.46;49.79;100787.09;10479670;28;20042;-87
2023/06/24 14:04:13;;;;;;;2.35;1.70;;;;;;;21.53;52.39;100781.75;10471042;28;20103;-85
2023/06/24 14:09:15;;;;;;;1.50;1.40;;;;;;;21.54;53.25;100777.81;10476246;28;20033;-84
2023/06/24 14:14:18;;;;;;;2.28;1.73;;;;;;;21.63;52.97;100786.84;10493196;28;20048;-86
2023/06/24 14:19:21;;;;;;;1.65;1.55;;;;;;;21.72;51.94;100783.94;10490235;28;20048;-86
2023/06/24 14:24:28;;;;;;;1.60;1.40;;;;;;;21.69;52.34;100791.00;10511117;28;20051;-86
2023/06/24 14:29:31;;;;;;;1.48;1.38;;;;;;;21.67;53.42;100790.56;10487060;28;20067;-83
2023/06/24 14:34:33;;;;;;;1.88;1.33;;;;;;;21.57;52.12;100794.66;10484096;28;20047;-85
2023/06/24 14:39:35;;;;;;;1.50;1.40;;;;;;;21.47;52.87;100803.50;10473159;28;20127;-83
2023/06/24 14:44:37;;;;;;;1.90;1.65;;;;;;;21.44;52.30;100798.63;10496780;28;20044;-85
2023/06/24 14:49:40;;;;;;;3.88;1.60;;;;;;;21.50;52.24;100793.59;10498764;28;20048;-85
2023/06/24 14:54:46;;;;;;;4.00;1.70;;;;;;;21.46;53.40;100792.69;10512061;28;20411;-87
2023/06/24 14:59:49;;;;;;;1.73;1.42;;;;;;;21.20;53.10;100793.84;10498726;28;20134;-85
2023/06/24 15:04:51;;;;;;;1.23;1.13;;;;;;;21.03;54.41;100794.09;10509966;28;20048;-86
2023/06/24 15:09:53;;;;;;;1.40;1.27;;;;;;;20.96;54.91;100786.28;10512191;28;20055;-86
2023/06/24 15:14:56;;;;;;;2.72;1.30;;;;;;;20.87;55.07;100782.78;10482829;28;20059;-88
2023/06/24 15:19:58;;;;;;;2.05;1.33;;;;;;;20.78;54.98;100771.72;10501245;28;20041;-88
2023/06/24 15:25:00;;;;;;;1.73;1.38;;;;;;;20.85;55.21;100779.53;10464125;28;20039;-90
2023/06/24 15:30:03;;;;;;;2.22;1.27;;;;;;;20.93;55.45;100781.41;10448474;28;20044;-88
2023/06/24 15:35:06;;;;;;;1.38;1.27;;;;;;;20.83;56.20;100775.47;10456214;28;20032;-85
2023/06/24 15:40:09;;;;;;;2.55;1.65;;;;;;;20.92;54.99;100778.94;10453522;28;20040;-85
2023/06/24 15:45:11;;;;;;;1.77;1.55;;;;;;;20.89;54.59;100777.69;10494868;28;20067;-87
2023/06/24 15:50:13;;;;;;;2.22;1.42;;;;;;;20.87;54.19;100777.22;10463338;28;20569;-87
2023/06/24 15:55:16;;;;;;;1.45;1.20;;;;;;;20.77;53.71;100770.09;10460199;28;20065;-87
2023/06/24 16:00:18;;;;;;;1.67;1.48;;;;;;;20.62;54.94;100775.53;10470952;28;20067;-87
2023/06/24 16:05:21;;;;;;;1.45;1.35;;;;;;;20.61;54.05;100773.91;10493366;28;20044;-88
2023/06/24 16:10:24;;;;;;;1.77;1.45;;;;;;;20.54;53.62;100770.88;10464856;28;20140;-86
2023/06/24 16:15:26;;;;;;;1.95;1.70;;;;;;;20.39;54.06;100770.34;10497468;28;20063;-88
2023/06/24 16:20:28;;;;;;;1.98;1.60;;;;;;;20.28;54.33;100765.53;10444529;28;20037;-87
2023/06/24 16:25:34;;;;;;;3.13;1.20;;;;;;;20.26;55.22;100765.88;10464180;28;20040;-88
2023/06/24 16:30:36;;;;;;;1.55;1.20;;;;;;;20.25;55.89;100771.81;10489676;28;20043;-89
2023/06/24 16:35:38;;;;;;;1.80;1.48;;;;;;;20.24;55.42;100778.53;10468629;28;20500;-89
2023/06/24 16:40:40;;;;;;;1.50;1.23;;;;;;;20.11;55.05;100778.47;10456698;28;20033;-89
2023/06/24 16:45:43;;;;;;;2.35;1.50;;;;;;;20.02;55.00;100772.19;10448269;28;20526;-90
2023/06/24 16:50:45;;;;;;;1.48;1.38;;;;;;;19.85;55.35;100773.16;10455681;28;20048;-87
2023/06/24 16:55:48;;;;;;;3.13;1.30;;;;;;;19.96;55.13;100769.94;10494836;28;20522;-88
2023/06/24 17:00:57;;;;;;;1.10;1.00;;;;;;;20.02;55.46;100772.19;10492070;28;20051;-85
2023/06/24 17:05:59;;;;;;;2.33;1.27;;;;;;;;;;10469405;28;20507;-88
2023/06/24 17:11:01;;;;;;;2.13;1.38;;;;;;;19.89;54.16;100764.94;10483629;28;20127;-87
2023/06/24 17:16:04;;;;;;;1.20;1.10;;;;;;;19.83;54.29;100767.13;10493258;28;20059;-89
2023/06/24 17:21:06;;;;;;;1.20;1.10;;;;;;;19.89;53.89;100781.63;10511035;28;20047;-88
2023/06/24 17:26:08;;;;;;;1.23;1.10;;;;;;;19.79;55.20;100787.63;10489448;28;20036;-87
2023/06/24 17:31:11;;;;;;;2.38;1.50;;;;;;;19.72;56.25;100792.91;10491295;28;20048;-87
2023/06/24 17:36:13;;;;;;;1.70;1.30;;;;;;;19.57;57.51;100789.56;10492701;28;20036;-86
2023/06/24 17:41:15;;;;;;;1.33;1.23;;;;;;;19.46;58.46;100791.09;10471357;28;20051;-89
2023/06/24 17:46:18;;;;;;;3.33;1.50;;;;;;;19.40;59.41;100797.19;10493916;28;20508;-90
2023/06/24 17:51:20;;;;;;;1.27;1.15;;;;;;;19.26;60.02;100800.19;10463108;28;20041;-86
2023/06/24 17:56:24;;;;;;;1.70;1.42;;;;;;;19.11;60.94;100807.19;10500969;28;20048;-86
2023/06/24 18:01:28;;;;;;;1.85;1.50;;;;;;;19.05;61.80;100810.47;10484420;28;20055;-90
2023/06/24 18:06:31;;;;;;;3.15;1.77;;;;;;;18.96;61.65;100816.88;10481420;28;20040;-89
2023/06/24 18:11:33;;;;;;;2.00;1.55;;;;;;;18.90;61.80;100818.19;10470029;28;20404;-87
2023/06/24 18:16:40;;;;;;;2.22;1.60;;;;;;;18.87;62.43;100810.53;10499753;28;20047;-89
2023/06/24 18:21:43;;;;;;;1.73;1.58;;;;;;;18.81;63.32;100814.66;10481399;28;20044;-88
2023/06/24 18:26:45;;;;;;;1.80;1.65;;;;;;;18.72;63.86;100813.84;10465136;28;20044;-88
2023/06/24 18:31:47;;;;;;;2.70;1.80;;;;;;;18.65;64.90;100821.91;10499994;28;20028;-88
2023/06/24 18:36:49;;;;;;;2.85;2.00;;;;;;;18.57;65.31;100820.75;10478642;28;20055;-89
2023/06/24 18:41:52;;;;;;;4.95;1.70;;;;;;;18.64;66.32;100818.31;10464676;28;20463;-88
2023/06/24 18:46:54;;;;;;;3.90;1.80;;;;;;;18.65;66.42;100821.91;10481418;28;20044;-89
2023/06/24 18:51:56;;;;;;;2.72;1.85;;;;;;;18.64;67.09;100823.84;10447558;28;20052;-89
2023/06/24 18:56:58;;;;;;;2.38;1.65;;;;;;;18.58;67.93;100825.16;10479506;28;20055;-89
2023/06/24 19:02:00;;;;;;;4.18;2.35;;;;;;;18.57;67.83;100825.47;10495250;28;20045;-90
2023/06/24 19:07:03;;;;;;;3.58;2.20;;;;;;;18.37;68.82;100822.22;10492874;28;20082;-88
2023/06/24 19:12:05;;;;;;;4.97;3.17;;;;;;;18.30;69.52;100826.66;10479807;28;20032;-88
2023/06/24 19:17:07;;;;;;;3.28;2.00;;;;;;;18.33;69.15;100826.81;10480654;28;20052;-88
2023/06/24 19:22:09;;;;;;;2.70;2.00;;;;;;;18.37;69.92;100827.78;10494509;28;20041;-88
2023/06/24 19:27:12;;;;;;;2.83;1.70;;;;;;;18.29;69.92;100822.25;10482241;28;20041;-88
2023/06/24 19:32:14;;;;;;;4.13;2.10;;;;;;;18.22;71.28;100825.53;10458567;28;20047;-87
2023/06/24 19:37:16;;;;;;;2.88;1.88;;;;;;;18.22;71.10;100828.31;10439589;28;20041;-88
2023/06/24 19:42:18;;;;;;;3.60;2.60;;;;;;;18.20;71.68;100827.81;10493519;28;20060;-88
2023/06/24 19:47:20;;;;;;;4.90;2.10;;;;;;;18.31;72.03;100831.06;10477420;28;20059;-88
2023/06/24 19:52:22;;;;;;;3.08;2.40;;;;;;;18.25;71.97;100824.88;10455155;28;20037;-88
2023/06/24 19:57:25;;;;;;;3.22;2.00;;;;;;;18.22;72.55;100824.69;10453371;28;20416;-86
2023/06/24 20:02:27;;;;;;;4.55;2.33;;;;;;;18.24;73.60;100819.66;10454627;28;20044;-86
2023/06/24 20:07:32;;;;;;;3.00;2.22;;;;;;;18.14;73.09;100822.75;10454830;28;20040;-90
2023/06/24 20:12:38;;;;;;;2.88;2.03;;;;;;;17.96;73.51;100822.75;10464628;28;20076;-86
2023/06/24 20:17:42;;;;;;;3.58;2.50;;;;;;;17.95;74.06;100828.63;10442580;28;20064;-85
2023/06/24 20:22:45;;;;;;;2.92;2.10;;;;;;;17.97;74.40;100826.34;10479486;28;20038;-85
2023/06/24 20:27:47;;;;;;;3.33;1.55;;;;;;;18.00;74.40;100831.25;10482577;28;20044;-84
2023/06/24 20:32:49;;;;;;;3.75;2.30;;;;;;;18.08;75.05;100827.66;10530503;28;20043;-87
2023/06/24 20:37:57;;;;;;;3.05;1.80;;;;;;;17.98;74.96;100839.09;10478402;28;20644;-87
2023/06/24 20:43:00;;;;;;;2.05;1.60;;;;;;;17.88;75.28;100836.66;10473416;28;20056;-83
2023/06/24 20:48:08;;;;;;;3.10;1.90;;;;;;;17.91;76.04;100836.00;10491478;28;20048;-85
2023/06/24 20:53:12;;;;;;;2.70;1.70;;;;;;;17.85;75.73;100840.06;10491101;28;20048;-86
2023/06/24 20:58:16;;;;;;;2.22;1.65;;;;;;;17.71;76.61;100838.25;10491971;28;20138;-87
2023/06/24 21:03:18;;;;;;;5.63;2.30;;;;;;;17.73;76.39;100838.75;10477167;28;20048;-87
2023/06/24 21:08:21;;;;;;;2.70;1.58;;;;;;;17.62;77.27;100834.59;10453298;28;20044;-86
2023/06/24 21:13:24;;;;;;;3.13;1.63;;;;;;;17.52;77.88;100831.31;10490037;28;20059;-86
2023/06/24 21:18:26;;;;;;;2.92;1.98;;;;;;;17.47;78.12;100824.78;10487850;28;20044;-86
2023/06/24 21:23:28;;;;;;;3.38;2.13;;;;;;;17.46;78.67;100834.25;10438171;28;20048;-86
2023/06/24 21:28:31;;;;;;;3.03;1.83;;;;;;;17.53;79.05;100827.38;10480053;28;20037;-87
2023/06/24 21:33:33;;;;;;;3.13;1.60;;;;;;;17.66;78.29;100832.81;10461070;28;20037;-87
2023/06/24 21:38:36;;;;;;;3.75;1.85;;;;;;;17.66;78.60;100830.03;10493563;28;20040;-86
2023/06/24 21:43:38;;;;;;;3.58;1.70;;;;;;;17.70;78.59;100835.78;10504765;28;20056;-87
2023/06/24 21:48:40;;;;;;;2.28;1.60;;;;;;;17.66;78.94;100832.00;10487603;28;20055;-88
2023/06/24 21:53:42;;;;;;;3.42;1.98;;;;;;;17.80;78.39;100834.66;10464897;28;20055;-86
2023/06/24 21:58:45;;;;;;;3.20;2.15;;;;;;;17.83;78.68;100831.22;10475558;28;20040;-86
2023/06/24 22:03:47;;;;;;;7.53;2.20;;;;;;;17.82;78.57;100827.63;10503065;28;20404;-86
2023/06/24 22:08:49;;;;;;;3.17;1.88;;;;;;;17.78;79.00;100832.22;10484740;28;20040;-86
2023/06/24 22:13:51;;;;;;;4.75;2.00;;;;;;;17.65;79.58;100828.41;10487294;28;20051;-85
2023/06/24 22:18:53;;;;;;;2.85;1.88;;;;;;;17.62;80.10;100831.00;10487735;28;20043;-86
2023/06/24 22:23:56;;;;;;;4.35;2.05;;;;;;;17.61;80.81;100827.44;10487036;28;20051;-86
2023/06/24 22:28:58;;;;;;;4.97;2.55;;;;;;;17.61;80.44;100827.44;10463645;28;20037;-86
2023/06/24 22:34:00;;;;;;;2.90;2.05;;;;;;;17.56;81.14;100830.38;10464346;28;20518;-86
2023/06/24 22:39:03;;;;;;;3.92;1.80;;;;;;;17.62;81.09;100829.06;10479331;28;20041;-86
2023/06/24 22:44:05;;;;;;;5.03;2.03;;;;;;;17.49;81.02;100824.44;10475526;28;20053;-86
2023/06/24 22:49:08;;;;;;;5.55;2.05;;;;;;;17.27;81.67;100825.38;10446774;28;20041;-86
2023/06/24 22:54:12;;;;;;;3.60;2.22;;;;;;;17.30;82.76;100832.25;10496323;28;20562;-85
2023/06/24 22:59:14;;;;;;;4.85;2.30;;;;;;;17.42;82.62;100819.38;10496482;28;20043;-86
2023/06/24 23:04:17;;;;;;;4.25;2.08;;;;;;;17.41;82.03;100826.09;10479417;28;20064;-86
2023/06/24 23:09:19;;;;;;;5.10;2.13;;;;;;;17.36;82.54;100839.28;10479355;28;20126;-85
2023/06/24 23:14:22;;;;;;;4.72;2.22;;;;;;;17.32;82.79;100841.06;10459899;28;20041;-86
2023/06/24 23:19:24;;;;;;;3.30;1.90;;;;;;;17.25;82.81;100847.06;10447900;28;20033;-86
2023/06/24 23:24:29;;;;;;;3.42;1.90;;;;;;;17.27;83.21;100844.78;10454732;28;20059;-86
2023/06/24 23:29:36;;;;;;;4.07;2.28;;;;;;;17.22;82.75;100841.38;10493727;28;20518;-86
2023/06/24 23:34:39;;;;;;;4.35;2.50;;;;;;;17.21;83.33;100845.28;10481789;28;20055;-86